Time;durP1;ratioP1;P1;durP2;ratioP2;P2;SDS_P1;SDS_P2;PMS_P1;PMS_P2;Temp;Humidity;BMP_temperature;BMP_pressure;BME280_temperature;BME280_humidity;BME280_pressure;Samples;Min_cycle;Max_cycle;Signal;HPM_P1;HPM_P2
2022/10/22 00:00:49;;;;;;;9.20;4.55;;;13.80;99.90;;;;;;5054755;28;20056;-74
2022/10/22 00:03:14;;;;;;;9.20;4.40;;;13.80;99.90;;;;;;5054839;28;20488;-74
2022/10/22 00:05:40;;;;;;;6.13;4.60;;;13.80;99.90;;;;;;5053638;28;20021;-74
2022/10/22 00:08:06;;;;;;;11.35;4.97;;;13.80;99.90;;;;;;5054926;28;20481;-74
2022/10/22 00:10:31;;;;;;;8.52;4.75;;;13.80;99.90;;;;;;5054245;28;20503;-74
2022/10/22 00:12:57;;;;;;;7.78;5.40;;;13.70;99.90;;;;;;5055590;28;20103;-75
2022/10/22 00:15:23;;;;;;;13.68;5.63;;;13.80;99.90;;;;;;5059846;28;20075;-75
2022/10/22 00:17:48;;;;;;;7.38;4.30;;;13.70;99.90;;;;;;5055259;28;20475;-75
2022/10/22 00:20:14;;;;;;;7.68;5.47;;;13.80;99.90;;;;;;5053843;28;20068;-75
2022/10/22 00:22:40;;;;;;;9.30;5.00;;;13.60;99.90;;;;;;5054687;28;20152;-75
2022/10/22 00:25:06;;;;;;;10.65;5.07;;;13.70;99.90;;;;;;5054488;28;20128;-76
2022/10/22 00:27:31;;;;;;;6.35;5.20;;;13.70;99.90;;;;;;5053798;28;20037;-76
2022/10/22 00:29:57;;;;;;;4.65;4.25;;;13.70;99.90;;;;;;5049637;28;20022;-74
2022/10/22 00:32:23;;;;;;;15.52;5.47;;;13.60;99.90;;;;;;5044386;28;20044;-75
2022/10/22 00:34:48;;;;;;;7.32;4.93;;;13.60;99.90;;;;;;5054286;28;20045;-75
2022/10/22 00:37:14;;;;;;;12.57;5.10;;;13.60;99.90;;;;;;5054892;28;20025;-75
2022/10/22 00:39:39;;;;;;;6.60;4.70;;;13.60;99.90;;;;;;5066505;28;20025;-75
2022/10/22 00:42:05;;;;;;;7.90;4.63;;;13.60;99.90;;;;;;5067998;28;20037;-75
2022/10/22 00:45:12;;;;;;;17.05;5.93;;;13.50;99.90;;;;;;5067778;28;20469;-75
2022/10/22 00:47:42;;;;;;;9.55;4.97;;;13.60;99.90;;;;;;5056233;28;20041;-75
2022/10/22 00:50:18;;;;;;;9.15;4.22;;;13.50;99.90;;;;;;5067855;28;20036;-74
2022/10/22 00:52:44;;;;;;;15.18;4.95;;;13.50;99.90;;;;;;5062465;28;20025;-75
2022/10/22 00:55:14;;;;;;;11.40;4.25;;;13.60;99.90;;;;;;5054887;28;20455;-75
2022/10/22 00:57:39;;;;;;;11.07;4.40;;;13.50;99.90;;;;;;5053611;28;20035;-74
2022/10/22 01:00:06;;;;;;;11.48;4.57;;;13.50;99.90;;;;;;5053511;28;20029;-73
2022/10/22 01:02:32;;;;;;;8.48;4.80;;;13.50;99.90;;;;;;5052583;28;20416;-75
2022/10/22 01:04:57;;;;;;;5.25;4.53;;;13.50;99.90;;;;;;5053198;28;20024;-75
2022/10/22 01:07:24;;;;;;;6.32;4.72;;;13.50;99.90;;;;;;5053563;28;20029;-75
2022/10/22 01:09:55;;;;;;;16.20;5.43;;;13.50;99.90;;;;;;5052648;28;20437;-73
2022/10/22 01:12:34;;;;;;;5.53;4.43;;;13.50;99.90;;;;;;5053536;28;20025;-73
2022/10/22 01:15:14;;;;;;;8.40;4.90;;;13.60;99.90;;;;;;5040464;28;20056;-75
2022/10/22 01:17:45;;;;;;;13.27;4.65;;;13.60;99.90;;;;;;5053016;28;20033;-74
2022/10/22 01:20:38;;;;;;;8.90;4.97;;;13.60;99.90;;;;;;5053218;28;20049;-75
2022/10/22 01:23:37;;;;;;;5.10;4.00;;;13.60;99.90;;;;;;5056799;28;20047;-74
2022/10/22 01:26:22;;;;;;;7.50;4.65;;;13.60;99.90;;;;;;5059560;28;20112;-75
2022/10/22 01:29:01;;;;;;;9.30;4.68;;;13.60;99.90;;;;;;5053170;28;20025;-75
2022/10/22 01:31:32;;;;;;;9.23;4.57;;;13.60;99.90;;;;;;5052688;28;20052;-75
2022/10/22 01:33:59;;;;;;;12.68;5.70;;;13.60;99.90;;;;;;5057955;28;20041;-75
2022/10/22 01:36:28;;;;;;;9.38;4.40;;;13.50;99.90;;;;;;5054805;28;20021;-74
2022/10/22 01:38:55;;;;;;;10.50;4.80;;;13.50;99.90;;;;;;5060645;28;20045;-75
2022/10/22 01:41:21;;;;;;;5.18;4.05;;;13.50;99.90;;;;;;5055969;28;20103;-75
2022/10/22 01:43:47;;;;;;;13.90;4.70;;;13.50;99.90;;;;;;5051935;28;20131;-74
2022/10/22 01:46:15;;;;;;;11.20;4.43;;;13.40;99.90;;;;;;5052942;28;20109;-75
2022/10/22 01:49:23;;;;;;;11.75;4.80;;;13.40;99.90;;;;;;5052273;28;20082;-74
2022/10/22 01:52:16;;;;;;;16.70;5.43;;;13.40;99.90;;;;;;5046869;28;20064;-75
2022/10/22 01:55:07;;;;;;;8.73;4.25;;;13.40;99.90;;;;;;5052223;28;20068;-75
2022/10/22 01:58:19;;;;;;;8.77;4.80;;;13.30;99.90;;;;;;5040089;28;20025;-75
2022/10/22 02:00:54;;;;;;;10.40;4.05;;;13.20;99.90;;;;;;5052414;28;20035;-74
2022/10/22 02:03:28;;;;;;;10.35;4.05;;;13.20;99.90;;;;;;5052592;28;20032;-75
2022/10/22 02:05:58;;;;;;;8.25;4.30;;;13.30;99.90;;;;;;5050251;28;20032;-74
2022/10/22 02:08:28;;;;;;;13.15;4.85;;;13.20;99.90;;;;;;5052187;28;20036;-75
2022/10/22 02:10:56;;;;;;;11.88;4.50;;;13.20;99.90;;;;;;5052649;28;20032;-75
2022/10/22 02:13:25;;;;;;;9.70;4.45;;;13.20;99.90;;;;;;5051671;28;20020;-75
2022/10/22 02:15:52;;;;;;;11.38;4.47;;;13.30;99.90;;;;;;5052507;28;20057;-74
2022/10/22 02:18:25;;;;;;;10.20;5.20;;;13.30;99.90;;;;;;5051855;28;20021;-74
2022/10/22 02:20:51;;;;;;;8.27;4.43;;;13.20;99.90;;;;;;5052419;28;20053;-74
2022/10/22 02:23:18;;;;;;;14.77;4.18;;;13.20;99.90;;;;;;5052211;28;20051;-75
2022/10/22 02:25:50;;;;;;;9.10;4.03;;;13.20;99.90;;;;;;5051646;28;20402;-75
2022/10/22 02:28:28;;;;;;;10.27;4.25;;;13.30;99.90;;;;;;5052106;28;20035;-75
2022/10/22 02:30:59;;;;;;;7.15;3.58;;;13.20;99.90;;;;;;5052530;28;20021;-75
2022/10/22 02:33:33;;;;;;;19.45;4.22;;;13.20;99.90;;;;;;5051264;28;20017;-75
2022/10/22 02:36:00;;;;;;;7.10;3.20;;;13.20;99.90;;;;;;5051593;28;20040;-74
2022/10/22 02:38:28;;;;;;;10.02;4.10;;;13.30;99.90;;;;;;5052244;28;20100;-74
2022/10/22 02:40:54;;;;;;;5.68;3.70;;;13.40;99.90;;;;;;5051959;28;20067;-74
2022/10/22 02:43:19;;;;;;;9.35;3.95;;;13.40;99.90;;;;;;5051589;28;20041;-74
2022/10/22 02:45:46;;;;;;;10.10;3.90;;;13.50;99.90;;;;;;5052060;28;20025;-74
2022/10/22 02:48:12;;;;;;;10.40;3.58;;;14.20;99.90;;;;;;5051443;28;20024;-74
2022/10/22 02:50:38;;;;;;;6.82;3.22;;;13.60;99.90;;;;;;5051513;28;20024;-74
2022/10/22 02:53:04;;;;;;;15.93;4.07;;;13.60;99.90;;;;;;5051967;28;20111;-74
2022/10/22 02:55:29;;;;;;;10.27;3.88;;;13.60;99.90;;;;;;5047928;28;20067;-74
2022/10/22 02:57:55;;;;;;;8.80;3.53;;;13.60;99.90;;;;;;5045666;28;20059;-74
2022/10/22 03:00:21;;;;;;;9.15;3.35;;;13.70;99.90;;;;;;5055842;28;20495;-74
2022/10/22 03:02:46;;;;;;;10.52;3.40;;;13.60;99.90;;;;;;5055080;28;20037;-74
2022/10/22 03:05:12;;;;;;;11.63;4.00;;;13.60;99.90;;;;;;5054590;28;20033;-74
2022/10/22 03:07:38;;;;;;;9.45;3.38;;;13.60;99.90;;;;;;5054674;28;20017;-74
2022/10/22 03:10:04;;;;;;;7.47;3.45;;;13.60;99.90;;;;;;5055742;28;20028;-74
2022/10/22 03:12:29;;;;;;;9.48;4.05;;;13.50;99.90;;;;;;5055234;28;20048;-75
2022/10/22 03:14:55;;;;;;;9.32;3.20;;;13.50;99.90;;;;;;5055151;28;20053;-75
2022/10/22 03:17:21;;;;;;;8.55;3.95;;;13.50;99.90;;;;;;5055558;28;20025;-75
2022/10/22 03:19:46;;;;;;;12.32;3.65;;;13.50;99.90;;;;;;5055183;28;20048;-76
2022/10/22 03:22:20;;;;;;;10.02;3.85;;;13.50;99.90;;;;;;5054791;28;20562;-76
2022/10/22 03:24:49;;;;;;;7.97;3.53;;;13.40;99.90;;;;;;5055465;28;20032;-76
2022/10/22 03:27:17;;;;;;;10.30;3.55;;;13.50;99.90;;;;;;5057151;28;20040;-76
2022/10/22 03:29:43;;;;;;;9.77;3.88;;;13.40;99.90;;;;;;5062228;28;20025;-75
2022/10/22 03:32:08;;;;;;;12.35;4.35;;;13.40;99.90;;;;;;5055623;28;20028;-75
2022/10/22 03:34:34;;;;;;;8.45;3.60;;;13.40;99.90;;;;;;5054813;28;20025;-75
2022/10/22 03:37:00;;;;;;;12.63;4.60;;;13.40;99.90;;;;;;5054601;28;20032;-75
2022/10/22 03:39:36;;;;;;;11.55;3.70;;;13.40;99.90;;;;;;5062029;28;20028;-75
2022/10/22 03:42:04;;;;;;;12.02;3.70;;;13.50;99.90;;;;;;5055287;28;20091;-76
2022/10/22 03:44:30;;;;;;;8.45;3.50;;;13.50;99.90;;;;;;5060266;28;20025;-75
2022/10/22 03:46:55;;;;;;;10.07;3.92;;;13.50;99.90;;;;;;5054981;28;20071;-75
2022/10/22 03:49:21;;;;;;;8.43;3.75;;;13.60;99.90;;;;;;5055321;28;20025;-75
2022/10/22 03:51:46;;;;;;;11.60;3.47;;;13.60;99.90;;;;;;5053856;28;20166;-75
2022/10/22 03:54:12;;;;;;;7.07;3.47;;;13.60;99.90;;;;;;5055207;28;20032;-75
2022/10/22 03:56:37;;;;;;;7.15;3.78;;;13.60;99.90;;;;;;5054200;28;20100;-75
2022/10/22 03:59:03;;;;;;;9.63;3.72;;;13.60;99.90;;;;;;5054577;28;20028;-75
2022/10/22 04:01:29;;;;;;;13.00;3.58;;;13.60;99.90;;;;;;5054422;28;20086;-75
2022/10/22 04:03:56;;;;;;;10.20;3.90;;;13.70;99.90;;;;;;5054066;28;20029;-75
2022/10/22 04:06:22;;;;;;;15.77;3.42;;;13.70;99.90;;;;;;5054795;28;20025;-75
2022/10/22 04:08:48;;;;;;;14.52;4.00;;;13.70;99.90;;;;;;5053311;28;20123;-75
2022/10/22 04:11:15;;;;;;;9.70;4.35;;;13.70;99.90;;;;;;5054137;28;20494;-75
2022/10/22 04:13:41;;;;;;;11.65;3.10;;;13.70;99.90;;;;;;5054273;28;20033;-75
2022/10/22 04:16:07;;;;;;;11.68;3.78;;;13.70;99.90;;;;;;5054317;28;20021;-75
2022/10/22 04:18:33;;;;;;;9.55;3.97;;;13.70;99.90;;;;;;5053322;28;20021;-75
2022/10/22 04:20:58;;;;;;;5.93;3.30;;;13.60;99.90;;;;;;5054171;28;20094;-75
2022/10/22 04:23:24;;;;;;;8.18;3.72;;;13.60;99.90;;;;;;5054447;28;20036;-75
2022/10/22 04:25:55;;;;;;;11.35;4.15;;;13.60;99.90;;;;;;5054095;28;20021;-76
2022/10/22 04:28:21;;;;;;;12.18;3.90;;;13.60;99.90;;;;;;5054904;28;20511;-75
2022/10/22 04:30:46;;;;;;;7.13;3.05;;;13.60;99.90;;;;;;5054441;28;20021;-76
2022/10/22 04:33:12;;;;;;;8.98;3.55;;;13.50;99.90;;;;;;5054443;28;20020;-74
2022/10/22 04:35:38;;;;;;;13.82;3.60;;;13.50;99.90;;;;;;5055676;28;20479;-75
2022/10/22 04:38:04;;;;;;;15.57;4.10;;;13.50;99.90;;;;;;5056732;28;20098;-74
2022/10/22 04:40:29;;;;;;;11.63;3.63;;;13.50;99.90;;;;;;5056870;28;20525;-75
2022/10/22 04:42:55;;;;;;;12.23;3.85;;;13.40;99.90;;;;;;5059972;28;20033;-76
2022/10/22 04:45:21;;;;;;;9.82;3.45;;;13.40;99.90;;;;;;5064637;28;20013;-74
2022/10/22 04:47:46;;;;;;;10.73;3.38;;;13.40;99.90;;;;;;5065032;28;20021;-75
2022/10/22 04:50:12;;;;;;;7.05;3.40;;;13.40;99.90;;;;;;5058500;28;20405;-75
2022/10/22 04:52:38;;;;;;;11.13;3.78;;;13.40;99.90;;;;;;5053812;28;20029;-74
2022/10/22 04:55:04;;;;;;;9.00;3.70;;;13.80;99.90;;;;;;5053197;28;20385;-76
2022/10/22 04:57:30;;;;;;;8.45;3.83;;;13.40;99.90;;;;;;5053515;28;20025;-74
2022/10/22 04:59:55;;;;;;;7.57;4.32;;;13.50;99.90;;;;;;5053200;28;20032;-74
2022/10/22 05:02:21;;;;;;;7.20;3.30;;;13.40;99.90;;;;;;5053535;28;20040;-74
2022/10/22 05:04:47;;;;;;;9.75;3.83;;;13.40;99.90;;;;;;5053206;28;20408;-74
2022/10/22 05:07:13;;;;;;;10.05;3.20;;;13.50;99.90;;;;;;5052885;28;20044;-74
2022/10/22 05:09:39;;;;;;;8.98;3.17;;;13.50;99.90;;;;;;5053256;28;20025;-75
2022/10/22 05:12:05;;;;;;;11.95;3.20;;;13.50;99.90;;;;;;5053516;28;20020;-75
2022/10/22 05:14:31;;;;;;;8.70;3.00;;;13.50;99.90;;;;;;5052344;28;20405;-75
2022/10/22 05:16:57;;;;;;;15.43;3.75;;;13.50;99.90;;;;;;5053116;28;20025;-75
2022/10/22 05:19:29;;;;;;;10.38;3.63;;;13.50;99.90;;;;;;5052920;28;20075;-75
2022/10/22 05:21:57;;;;;;;10.90;3.55;;;13.40;99.90;;;;;;5053168;28;20037;-75
2022/10/22 05:24:23;;;;;;;7.13;3.42;;;13.40;99.90;;;;;;5054008;28;20107;-74
2022/10/22 05:26:50;;;;;;;16.95;4.45;;;13.40;99.90;;;;;;5053512;28;20021;-75
2022/10/22 05:29:16;;;;;;;10.18;3.15;;;13.40;99.90;;;;;;5052355;28;20405;-75
2022/10/22 05:31:42;;;;;;;12.27;3.53;;;13.40;99.90;;;;;;5053764;28;20082;-75
2022/10/22 05:34:07;;;;;;;10.30;3.20;;;13.40;99.90;;;;;;5058051;28;20033;-75
2022/10/22 05:36:33;;;;;;;11.73;3.97;;;13.40;99.90;;;;;;5052335;28;20029;-75
2022/10/22 05:38:59;;;;;;;9.88;3.38;;;13.40;99.90;;;;;;5053135;28;20021;-75
2022/10/22 05:41:26;;;;;;;10.02;3.30;;;13.30;99.90;;;;;;5054719;28;20519;-75
2022/10/22 05:43:54;;;;;;;12.85;2.88;;;13.30;99.90;;;;;;5061008;28;20033;-75
2022/10/22 05:46:21;;;;;;;9.80;3.65;;;13.30;99.90;;;;;;5053040;28;20017;-74
2022/10/22 05:48:56;;;;;;;10.80;3.88;;;13.20;99.90;;;;;;5060247;28;20029;-75
2022/10/22 05:51:23;;;;;;;13.60;4.10;;;13.20;99.90;;;;;;5052442;28;20017;-75
2022/10/22 05:53:54;;;;;;;9.35;3.50;;;13.20;99.90;;;;;;5053007;28;20032;-75
2022/10/22 05:56:20;;;;;;;9.65;3.13;;;13.20;99.90;;;;;;5051983;28;20037;-75
2022/10/22 05:58:46;;;;;;;7.07;2.67;;;13.10;99.90;;;;;;5052389;28;20028;-73
2022/10/22 06:01:15;;;;;;;14.90;3.05;;;13.10;99.90;;;;;;5052200;28;20029;-74
2022/10/22 06:03:41;;;;;;;15.57;4.03;;;13.10;99.90;;;;;;5050435;28;20039;-75
2022/10/22 06:06:18;;;;;;;7.55;3.08;;;13.10;99.90;;;;;;5048208;28;20100;-75
2022/10/22 06:08:48;;;;;;;8.23;3.20;;;13.10;99.90;;;;;;5048346;28;20025;-75
2022/10/22 06:11:16;;;;;;;9.70;3.40;;;13.10;99.90;;;;;;5049965;28;20028;-74
2022/10/22 06:13:43;;;;;;;13.75;4.38;;;13.00;99.90;;;;;;5049783;28;20032;-74
2022/10/22 06:16:09;;;;;;;8.25;2.90;;;13.00;99.90;;;;;;5050043;28;20051;-74
2022/10/22 06:18:34;;;;;;;9.95;4.13;;;13.00;99.90;;;;;;5050498;28;20029;-74
2022/10/22 06:21:08;;;;;;;12.65;4.13;;;13.00;99.90;;;;;;5050630;28;20057;-74
2022/10/22 06:23:33;;;;;;;9.23;3.03;;;13.10;99.90;;;;;;5050810;28;20044;-74
2022/10/22 06:26:03;;;;;;;22.00;6.20;;;13.00;99.90;;;;;;5050121;28;20013;-75
2022/10/22 06:28:28;;;;;;;10.50;3.83;;;13.10;99.90;;;;;;5050790;28;20025;-74
2022/10/22 06:30:56;;;;;;;10.85;3.08;;;13.10;99.90;;;;;;5049804;28;20027;-74
2022/10/22 06:33:21;;;;;;;12.85;3.38;;;13.10;99.90;;;;;;5049783;28;20113;-75
2022/10/22 06:35:47;;;;;;;13.77;3.22;;;13.20;99.90;;;;;;5050362;28;20436;-74
2022/10/22 06:38:16;;;;;;;10.82;4.07;;;13.20;99.90;;;;;;5050869;28;20029;-76
2022/10/22 06:40:43;;;;;;;10.18;3.60;;;13.30;99.90;;;;;;5050330;28;20025;-78
2022/10/22 06:43:12;;;;;;;8.95;3.35;;;13.40;99.90;;;;;;5051032;28;20037;-75
2022/10/22 06:45:39;;;;;;;7.85;3.10;;;13.40;99.90;;;;;;5049965;28;20054;-74
2022/10/22 06:48:05;;;;;;;9.88;3.50;;;13.50;99.90;;;;;;5050888;28;20054;-76
2022/10/22 06:50:32;;;;;;;7.43;3.03;;;13.40;99.90;;;;;;5050832;28;20025;-76
2022/10/22 06:52:58;;;;;;;12.23;3.55;;;13.50;99.90;;;;;;5048140;28;20044;-74
2022/10/22 06:55:23;;;;;;;11.77;3.45;;;13.60;99.90;;;;;;5049831;28;20021;-74
2022/10/22 06:57:49;;;;;;;10.00;3.28;;;13.60;99.90;;;;;;5049769;28;20052;-73
2022/10/22 07:00:14;;;;;;;7.70;3.63;;;13.60;99.90;;;;;;5047867;28;20067;-73
2022/10/22 07:02:40;;;;;;;8.45;3.20;;;13.70;99.90;;;;;;5049677;28;20033;-74
2022/10/22 07:05:06;;;;;;;9.50;3.75;;;13.70;99.90;;;;;;5048057;28;20080;-73
2022/10/22 07:07:32;;;;;;;7.63;3.00;;;13.80;99.90;;;;;;5048889;28;20036;-75
2022/10/22 07:09:57;;;;;;;9.57;3.28;;;13.90;99.90;;;;;;5048504;28;20044;-75
2022/10/22 07:12:23;;;;;;;10.57;2.97;;;14.00;99.90;;;;;;5049716;28;20017;-74
2022/10/22 07:14:49;;;;;;;8.98;3.20;;;14.10;99.90;;;;;;5051417;28;20108;-75
2022/10/22 07:17:14;;;;;;;7.20;2.65;;;14.10;99.90;;;;;;5048127;28;20029;-74
2022/10/22 07:19:40;;;;;;;6.72;2.95;;;14.20;99.90;;;;;;5049182;28;20120;-74
2022/10/22 07:22:05;;;;;;;11.25;2.83;;;14.30;99.90;;;;;;5041177;28;20056;-75
2022/10/22 07:24:31;;;;;;;9.05;3.13;;;14.30;99.90;;;;;;5045056;28;20048;-74
2022/10/22 07:26:57;;;;;;;11.30;3.67;;;14.40;99.90;;;;;;5044940;28;20036;-75
2022/10/22 07:29:22;;;;;;;11.70;3.15;;;14.50;99.90;;;;;;5048285;28;20030;-74
2022/10/22 07:31:48;;;;;;;10.10;2.55;;;14.60;99.90;;;;;;5050128;28;20064;-75
2022/10/22 07:34:13;;;;;;;12.18;3.33;;;14.60;99.90;;;;;;5049743;28;20021;-75
2022/10/22 07:36:39;;;;;;;10.90;3.20;;;14.70;99.90;;;;;;5052850;28;20021;-74
2022/10/22 07:39:04;;;;;;;8.73;3.30;;;14.80;99.90;;;;;;5058036;28;20024;-75
2022/10/22 07:41:30;;;;;;;13.75;3.45;;;14.80;99.90;;;;;;5051384;28;20029;-75
2022/10/22 07:43:56;;;;;;;8.63;2.70;;;14.80;99.90;;;;;;5049049;28;20515;-75
2022/10/22 07:46:23;;;;;;;9.70;2.80;;;14.80;99.90;;;;;;5046779;28;20104;-73
2022/10/22 07:48:49;;;;;;;9.15;3.03;;;14.90;99.90;;;;;;5053914;28;20095;-75
2022/10/22 07:51:15;;;;;;;9.25;3.33;;;14.90;99.90;;;;;;5055901;28;20013;-76
2022/10/22 07:53:41;;;;;;;10.90;3.13;;;14.90;99.90;;;;;;5054069;28;20029;-74
2022/10/22 07:56:06;;;;;;;11.10;3.20;;;15.00;99.90;;;;;;5047395;28;20132;-74
2022/10/22 07:58:33;;;;;;;12.85;3.70;;;15.10;99.90;;;;;;5046496;28;20029;-74
2022/10/22 08:00:59;;;;;;;9.52;3.35;;;15.10;99.90;;;;;;5047350;28;20017;-73
2022/10/22 08:03:26;;;;;;;9.40;2.75;;;15.20;99.90;;;;;;5043779;28;20037;-73
2022/10/22 08:05:52;;;;;;;9.38;2.83;;;15.20;99.90;;;;;;5050214;28;20028;-74
2022/10/22 08:08:19;;;;;;;11.57;2.47;;;15.30;99.90;;;;;;5053610;28;20025;-74
2022/10/22 08:10:46;;;;;;;6.03;2.10;;;15.40;99.90;;;;;;5048986;28;20394;-74
2022/10/22 08:13:11;;;;;;;9.65;2.25;;;15.40;99.90;;;;;;5052832;28;20022;-75
2022/10/22 08:15:38;;;;;;;6.65;2.58;;;15.40;99.90;;;;;;5055434;28;20044;-77
2022/10/22 08:18:04;;;;;;;11.80;2.50;;;15.40;99.90;;;;;;5048628;28;20028;-79
2022/10/22 08:20:30;;;;;;;14.32;3.25;;;15.40;99.90;;;;;;5041312;28;20041;-76
2022/10/22 08:22:56;;;;;;;8.93;2.83;;;15.50;99.90;;;;;;5047690;28;20054;-81
2022/10/22 08:25:22;;;;;;;9.52;2.40;;;15.40;99.90;;;;;;5044602;28;20021;-80
2022/10/22 08:27:47;;;;;;;7.93;2.03;;;15.50;99.90;;;;;;5054382;28;20036;-80
2022/10/22 08:30:13;;;;;;;14.43;2.17;;;15.60;99.90;;;;;;5065459;28;20024;-78
2022/10/22 08:32:40;;;;;;;13.68;2.53;;;15.60;99.90;;;;;;5062318;28;20028;-75
2022/10/22 08:35:06;;;;;;;14.80;3.03;;;15.70;99.90;;;;;;5071116;28;20033;-79
2022/10/22 08:37:31;;;;;;;7.55;2.00;;;15.70;99.90;;;;;;5071529;28;20044;-79
2022/10/22 08:39:57;;;;;;;11.07;2.42;;;15.70;99.90;;;;;;5086815;28;20041;-80
2022/10/22 08:42:53;;;;;;;7.95;2.20;;;15.70;99.90;;;;;;5068086;28;20422;-81
2022/10/22 08:45:33;;;;;;;8.50;2.42;;;15.80;99.90;;;;;;5060668;28;20040;-82
2022/10/22 08:48:18;;;;;;;9.63;2.35;;;15.80;99.90;;;;;;5060978;28;20156;-82
2022/10/22 08:50:49;;;;;;;9.93;1.98;;;15.90;99.90;;;;;;5058476;28;20426;-82
2022/10/22 08:53:21;;;;;;;9.65;2.80;;;15.90;99.90;;;;;;5045940;28;20379;-82
2022/10/22 08:55:51;;;;;;;10.75;1.92;;;15.90;99.90;;;;;;5043082;28;20029;-82
2022/10/22 08:58:41;;;;;;;9.97;2.53;;;15.90;99.90;;;;;;5048245;28;20702;-82
2022/10/22 09:01:18;;;;;;;9.48;2.70;;;16.00;99.90;;;;;;5041697;28;20359;-81
2022/10/22 09:03:55;;;;;;;9.73;2.88;;;16.00;99.90;;;;;;5050423;28;20041;-80
2022/10/22 09:06:24;;;;;;;17.80;2.75;;;15.90;99.90;;;;;;5053785;28;20048;-81
2022/10/22 09:08:51;;;;;;;12.45;2.58;;;15.90;99.90;;;;;;5048648;28;20028;-82
2022/10/22 09:11:32;;;;;;;8.90;2.83;;;16.00;99.90;;;;;;5036881;28;20025;-82
2022/10/22 09:13:59;;;;;;;13.75;3.13;;;16.10;99.90;;;;;;5047069;28;20021;-81
2022/10/22 09:16:42;;;;;;;10.48;2.67;;;16.10;99.90;;;;;;5043794;28;20056;-83
2022/10/22 09:19:26;;;;;;;13.23;2.40;;;16.10;99.90;;;;;;5049959;28;20376;-82
2022/10/22 09:22:01;;;;;;;10.90;2.80;;;16.10;99.90;;;;;;5042346;28;20439;-83
2022/10/22 09:24:38;;;;;;;6.97;2.47;;;16.20;99.90;;;;;;5049612;28;20041;-83
2022/10/22 09:27:26;;;;;;;9.38;2.35;;;16.10;99.90;;;;;;5048377;28;20021;-83
2022/10/22 09:29:51;;;;;;;6.00;2.05;;;16.30;99.90;;;;;;5047434;28;20424;-82
2022/10/22 09:32:18;;;;;;;13.40;2.67;;;16.40;99.90;;;;;;5052514;28;20017;-82
2022/10/22 09:34:45;;;;;;;8.93;2.00;;;16.50;99.90;;;;;;5048992;28;20024;-83
2022/10/22 09:37:11;;;;;;;10.07;2.67;;;16.50;99.90;;;;;;5044872;28;20048;-82
2022/10/22 09:39:43;;;;;;;11.80;2.63;;;16.60;99.90;;;;;;5050754;28;20469;-83
2022/10/22 09:42:13;;;;;;;8.20;2.17;;;16.60;99.90;;;;;;5048369;28;20018;-82
2022/10/22 09:44:38;;;;;;;4.80;2.08;;;16.70;99.90;;;;;;5052939;28;20079;-82
2022/10/22 09:47:06;;;;;;;8.65;2.40;;;16.80;99.90;;;;;;5050236;28;20017;-81
2022/10/22 09:49:34;;;;;;;10.63;2.72;;;16.90;99.90;;;;;;5047027;28;20056;-82
2022/10/22 09:52:00;;;;;;;11.25;2.50;;;16.90;99.90;;;;;;5050309;28;20020;-81
2022/10/22 09:54:31;;;;;;;7.45;2.15;;;17.00;99.90;;;;;;5048669;28;20463;-82
2022/10/22 09:57:02;;;;;;;18.70;3.35;;;17.00;99.90;;;;;;5064287;28;20017;-81
2022/10/22 09:59:32;;;;;;;;;;;17.00;99.90;;;;;;5052336;28;20029;-82
2022/10/22 10:02:03;;;;;;;11.90;2.17;;;16.90;99.90;;;;;;5054191;28;19912;-82
2022/10/22 10:04:34;;;;;;;9.57;2.22;;;17.00;99.90;;;;;;5045756;28;20045;-81
2022/10/22 10:06:59;;;;;;;10.27;2.42;;;17.00;99.90;;;;;;5045848;28;20064;-82
2022/10/22 10:09:26;;;;;;;12.40;2.03;;;16.90;99.90;;;;;;5050575;28;20016;-82
2022/10/22 10:12:06;;;;;;;11.90;2.83;;;16.90;99.90;;;;;;5045197;28;20049;-83
2022/10/22 10:14:42;;;;;;;11.30;2.17;;;16.90;99.90;;;;;;5048467;28;20021;-83
2022/10/22 10:17:35;;;;;;;12.25;2.20;;;16.90;99.90;;;;;;5040366;28;20022;-83
2022/10/22 10:20:22;;;;;;;9.55;2.35;;;17.00;99.90;;;;;;5045006;28;20049;-82
2022/10/22 10:22:56;;;;;;;12.80;2.38;;;17.10;99.90;;;;;;5047931;28;20017;-82
2022/10/22 10:25:25;;;;;;;8.40;2.15;;;17.20;99.90;;;;;;5051471;28;20029;-82
2022/10/22 10:27:58;;;;;;;18.55;2.25;;;17.20;99.90;;;;;;5046338;28;20021;-82
2022/10/22 10:30:24;;;;;;;11.02;2.30;;;17.40;99.90;;;;;;5052735;28;20025;-81
2022/10/22 10:33:17;;;;;;;12.45;1.83;;;17.30;99.90;;;;;;5048800;28;20025;-79
2022/10/22 10:36:09;;;;;;;11.52;2.97;;;17.40;99.90;;;;;;5053530;28;20041;-82
2022/10/22 10:38:55;;;;;;;13.32;2.85;;;17.30;99.90;;;;;;5039546;28;20029;-83
2022/10/22 10:42:05;;;;;;;11.57;2.58;;;17.40;99.90;;;;;;5052318;28;20036;-82
2022/10/22 10:44:51;;;;;;;15.38;2.67;;;17.40;99.90;;;;;;4977819;28;20049;-82
2022/10/22 10:47:43;;;;;;;8.45;2.17;;;17.50;99.90;;;;;;4982146;28;20053;-83
2022/10/22 10:50:33;;;;;;;10.13;2.28;;;17.70;99.90;;;;;;5033875;28;20029;-83
2022/10/22 10:53:21;;;;;;;15.25;2.58;;;17.80;99.90;;;;;;5040893;28;20390;-83
2022/10/22 10:56:27;;;;;;;10.60;2.28;;;17.80;99.90;;;;;;5044058;28;20123;-82
2022/10/22 10:59:10;;;;;;;10.82;2.28;;;17.90;99.90;;;;;;5009127;28;20070;-82
2022/10/22 11:01:48;;;;;;;17.48;3.00;;;17.90;99.90;;;;;;5049772;28;20033;-82
2022/10/22 11:05:07;;;;;;;13.45;2.78;;;17.80;99.90;;;;;;5050213;28;20115;-81
2022/10/22 11:07:41;;;;;;;12.93;2.30;;;17.70;99.90;;;;;;5009594;28;20109;-82
2022/10/22 11:10:21;;;;;;;21.13;2.55;;;17.70;99.90;;;;;;5057511;28;20059;-84
2022/10/22 11:12:51;;;;;;;8.05;2.47;;;17.70;99.90;;;;;;5044167;28;20021;-82
2022/10/22 11:15:25;;;;;;;9.82;2.70;;;17.80;99.90;;;;;;5053422;28;20029;-84
2022/10/22 11:17:58;;;;;;;16.63;2.67;;;17.80;99.90;;;;;;5055162;28;20025;-82
2022/10/22 11:20:48;;;;;;;16.60;2.67;;;17.90;99.90;;;;;;5056399;28;20041;-83
2022/10/22 11:23:31;;;;;;;17.25;3.22;;;17.90;99.90;;;;;;5057583;28;20037;-83
2022/10/22 11:26:00;;;;;;;14.23;2.05;;;18.00;99.90;;;;;;5042888;28;20123;-81
2022/10/22 11:28:34;;;;;;;10.77;1.92;;;17.90;99.90;;;;;;5056010;28;20115;-83
2022/10/22 11:31:19;;;;;;;13.45;2.72;;;17.90;99.90;;;;;;5056857;28;20473;-82
2022/10/22 11:34:15;;;;;;;13.77;2.80;;;18.00;99.90;;;;;;5051379;28;20071;-83
2022/10/22 11:36:42;;;;;;;7.38;2.45;;;17.90;99.90;;;;;;5053513;28;20116;-82
2022/10/22 11:39:32;;;;;;;15.82;3.33;;;17.90;99.90;;;;;;5056306;28;20031;-82
2022/10/22 11:42:00;;;;;;;;;;;17.80;99.90;;;;;;5048953;28;20107;-82
2022/10/22 11:44:29;;;;;;;11.30;2.80;;;17.80;99.90;;;;;;5064990;28;19944;-82
2022/10/22 11:47:23;;;;;;;12.07;2.42;;;17.70;99.90;;;;;;5052155;28;20125;-79
2022/10/22 11:50:18;;;;;;;13.27;2.60;;;17.90;99.90;;;;;;5053238;28;20412;-83
2022/10/22 11:53:25;;;;;;;9.98;3.35;;;18.00;99.90;;;;;;5051380;28;20032;-83
2022/10/22 11:55:58;;;;;;;19.02;3.17;;;18.20;99.90;;;;;;5049768;28;20025;-81
2022/10/22 11:58:42;;;;;;;15.88;3.38;;;18.30;99.90;;;;;;5048218;28;20021;-83
2022/10/22 12:01:08;;;;;;;18.73;3.13;;;18.40;99.90;;;;;;5052026;28;20101;-81
2022/10/22 12:03:33;;;;;;;18.80;3.95;;;18.40;99.90;;;;;;5054594;28;20115;-82
2022/10/22 12:06:11;;;;;;;13.65;2.78;;;18.50;99.90;;;;;;5054165;28;20450;-83
2022/10/22 12:08:55;;;;;;;8.73;2.65;;;18.70;99.90;;;;;;5052472;28;20477;-82
2022/10/22 12:11:46;;;;;;;13.00;2.83;;;18.80;99.90;;;;;;5054935;28;20381;-82
2022/10/22 12:14:26;;;;;;;20.00;3.13;;;18.90;99.90;;;;;;5052035;28;20407;-82
2022/10/22 12:17:04;;;;;;;15.57;3.72;;;18.90;99.90;;;;;;5046307;28;20021;-81
2022/10/22 12:19:35;;;;;;;13.40;3.58;;;18.90;99.90;;;;;;5047466;28;20223;-80
2022/10/22 12:22:13;;;;;;;16.52;3.60;;;19.00;99.90;;;;;;5043840;28;20029;-82
2022/10/22 12:24:48;;;;;;;14.00;3.22;;;19.00;99.90;;;;;;5050598;28;20044;-80
2022/10/22 12:27:26;;;;;;;13.05;2.95;;;19.00;99.90;;;;;;5065369;28;20013;-81
2022/10/22 12:29:56;;;;;;;14.23;3.42;;;19.00;99.90;;;;;;5069677;28;20025;-81
2022/10/22 12:32:23;;;;;;;14.30;3.58;;;19.00;99.90;;;;;;5064722;28;20020;-81
2022/10/22 12:34:51;;;;;;;16.02;3.45;;;19.00;99.90;;;;;;5069544;28;20043;-81
2022/10/22 12:37:18;;;;;;;15.05;3.25;;;18.90;99.90;;;;;;5066071;28;20041;-81
2022/10/22 12:39:44;;;;;;;16.33;3.42;;;18.80;99.90;;;;;;5071143;28;20035;-80
2022/10/22 12:42:16;;;;;;;15.13;2.58;;;18.60;99.90;;;;;;5060078;28;20029;-81
2022/10/22 12:44:45;;;;;;;17.20;4.20;;;18.40;99.90;;;;;;5058229;28;20037;-80
2022/10/22 12:47:15;;;;;;;19.13;3.90;;;18.20;99.90;;;;;;5055697;28;20437;-81
2022/10/22 12:49:44;;;;;;;11.95;3.72;;;18.10;99.90;;;;;;5055188;28;20453;-82
2022/10/22 12:52:18;;;;;;;13.00;4.15;;;18.00;99.90;;;;;;5064976;28;20017;-81
2022/10/22 12:54:47;;;;;;;17.17;3.03;;;18.00;99.90;;;;;;5060912;28;20399;-80
2022/10/22 12:57:18;;;;;;;18.05;3.58;;;18.00;99.90;;;;;;5064070;28;20412;-82
2022/10/22 12:59:48;;;;;;;13.82;3.20;;;18.20;99.90;;;;;;5054567;28;20121;-82